sensor_id;sensor_type;location;lat;lon;timestamp;pressure;altitude;pressure_sealevel;temperature;humidity
80678;BME280;70042;52.494;5.502;2024-01-06T00:00:20;100538.34;;;16.84;61.91
80678;BME280;70042;52.494;5.502;2024-01-06T00:02:48;100545.34;;;16.85;61.66
80678;BME280;70042;52.494;5.502;2024-01-06T00:05:14;100546.25;;;16.84;61.78
80678;BME280;70042;52.494;5.502;2024-01-06T00:07:39;100548.88;;;16.84;61.80
80678;BME280;70042;52.494;5.502;2024-01-06T00:10:06;100547.19;;;16.83;61.74
80678;BME280;70042;52.494;5.502;2024-01-06T00:12:31;100545.44;;;16.82;61.81
80678;BME280;70042;52.494;5.502;2024-01-06T00:14:57;100553.34;;;16.82;62.01
80678;BME280;70042;52.494;5.502;2024-01-06T00:17:22;100544.63;;;16.80;61.83
80678;BME280;70042;52.494;5.502;2024-01-06T00:19:48;100551.59;;;16.82;61.72
80678;BME280;70042;52.494;5.502;2024-01-06T00:22:19;100556.00;;;16.82;61.77
80678;BME280;70042;52.494;5.502;2024-01-06T00:24:45;100558.63;;;16.82;61.67
80678;BME280;70042;52.494;5.502;2024-01-06T00:27:11;100560.38;;;16.83;61.46
80678;BME280;70042;52.494;5.502;2024-01-06T00:29:36;100562.13;;;16.82;61.66
80678;BME280;70042;52.494;5.502;2024-01-06T00:32:02;100566.50;;;16.83;61.75
80678;BME280;70042;52.494;5.502;2024-01-06T00:34:27;100567.41;;;16.82;61.98
80678;BME280;70042;52.494;5.502;2024-01-06T00:36:53;100571.78;;;16.83;61.70
80678;BME280;70042;52.494;5.502;2024-01-06T00:39:19;100571.81;;;16.82;61.49
80678;BME280;70042;52.494;5.502;2024-01-06T00:41:45;100572.78;;;16.79;61.65
80678;BME280;70042;52.494;5.502;2024-01-06T00:44:11;100573.66;;;16.80;61.71
80678;BME280;70042;52.494;5.502;2024-01-06T00:46:36;100579.81;;;16.79;61.84
80678;BME280;70042;52.494;5.502;2024-01-06T00:49:02;100581.59;;;16.78;61.66
80678;BME280;70042;52.494;5.502;2024-01-06T00:51:29;100591.25;;;16.78;62.03
80678;BME280;70042;52.494;5.502;2024-01-06T00:53:54;100581.59;;;16.78;61.86
80678;BME280;70042;52.494;5.502;2024-01-06T00:56:20;100591.25;;;16.78;61.64
80678;BME280;70042;52.494;5.502;2024-01-06T00:58:45;100582.47;;;16.79;62.03
80678;BME280;70042;52.494;5.502;2024-01-06T01:01:10;100586.88;;;16.78;61.83
80678;BME280;70042;52.494;5.502;2024-01-06T01:03:36;100588.59;;;16.79;61.79
80678;BME280;70042;52.494;5.502;2024-01-06T01:06:01;100594.75;;;16.80;61.73
80678;BME280;70042;52.494;5.502;2024-01-06T01:08:27;100600.88;;;16.80;61.78
80678;BME280;70042;52.494;5.502;2024-01-06T01:10:53;100601.75;;;16.81;61.62
80678;BME280;70042;52.494;5.502;2024-01-06T01:13:18;100600.03;;;16.80;61.58
80678;BME280;70042;52.494;5.502;2024-01-06T01:15:43;100598.28;;;16.79;61.98
80678;BME280;70042;52.494;5.502;2024-01-06T01:18:09;100607.09;;;16.78;61.59
80678;BME280;70042;52.494;5.502;2024-01-06T01:20:34;100611.50;;;16.77;61.80
80678;BME280;70042;52.494;5.502;2024-01-06T01:23:00;100608.91;;;16.76;61.92
80678;BME280;70042;52.494;5.502;2024-01-06T01:25:25;100608.06;;;16.75;61.83
80678;BME280;70042;52.494;5.502;2024-01-06T01:27:50;100618.59;;;16.75;61.73
80678;BME280;70042;52.494;5.502;2024-01-06T01:30:19;100628.28;;;16.75;61.97
80678;BME280;70042;52.494;5.502;2024-01-06T01:32:44;100625.63;;;16.75;61.86
80678;BME280;70042;52.494;5.502;2024-01-06T01:35:10;100632.66;;;16.76;61.99
80678;BME280;70042;52.494;5.502;2024-01-06T01:37:35;100633.47;;;16.78;61.61
80678;BME280;70042;52.494;5.502;2024-01-06T01:40:01;100644.03;;;16.78;61.62
80678;BME280;70042;52.494;5.502;2024-01-06T01:42:26;100642.28;;;16.77;61.56
80678;BME280;70042;52.494;5.502;2024-01-06T01:44:51;100644.03;;;16.78;61.59
80678;BME280;70042;52.494;5.502;2024-01-06T01:47:17;100647.56;;;16.77;61.78
80678;BME280;70042;52.494;5.502;2024-01-06T01:49:45;100637.94;;;16.76;61.80
80678;BME280;70042;52.494;5.502;2024-01-06T01:52:12;100643.22;;;16.76;61.87
80678;BME280;70042;52.494;5.502;2024-01-06T01:54:39;100644.09;;;16.75;62.08
80678;BME280;70042;52.494;5.502;2024-01-06T01:57:04;100641.53;;;16.73;61.75
80678;BME280;70042;52.494;5.502;2024-01-06T01:59:30;100641.53;;;16.72;61.71
80678;BME280;70042;52.494;5.502;2024-01-06T02:01:58;100652.91;;;16.74;61.82
80678;BME280;70042;52.494;5.502;2024-01-06T02:04:23;100656.47;;;16.73;61.84
80678;BME280;70042;52.494;5.502;2024-01-06T02:06:49;100662.63;;;16.73;62.12
80678;BME280;70042;52.494;5.502;2024-01-06T02:09:15;100660.00;;;16.72;61.71
80678;BME280;70042;52.494;5.502;2024-01-06T02:11:40;100665.28;;;16.73;61.22
80678;BME280;70042;52.494;5.502;2024-01-06T02:14:06;100674.03;;;16.74;61.49
80678;BME280;70042;52.494;5.502;2024-01-06T02:16:31;100674.91;;;16.74;61.69
80678;BME280;70042;52.494;5.502;2024-01-06T02:18:57;100680.16;;;16.74;61.80
80678;BME280;70042;52.494;5.502;2024-01-06T02:21:23;100678.47;;;16.73;61.65
80678;BME280;70042;52.494;5.502;2024-01-06T02:23:49;100679.31;;;16.74;61.66
80678;BME280;70042;52.494;5.502;2024-01-06T02:26:15;100688.13;;;16.73;61.94
80678;BME280;70042;52.494;5.502;2024-01-06T02:28:41;100686.41;;;16.72;61.59
80678;BME280;70042;52.494;5.502;2024-01-06T02:31:06;100689.94;;;16.71;61.52
80678;BME280;70042;52.494;5.502;2024-01-06T02:33:32;100697.84;;;16.71;61.61
80678;BME280;70042;52.494;5.502;2024-01-06T02:35:57;100699.63;;;16.70;61.81
80678;BME280;70042;52.494;5.502;2024-01-06T02:38:23;100697.91;;;16.69;61.76
80678;BME280;70042;52.494;5.502;2024-01-06T02:40:48;100700.53;;;16.69;61.69
80678;BME280;70042;52.494;5.502;2024-01-06T02:43:13;100704.03;;;16.70;61.75
80678;BME280;70042;52.494;5.502;2024-01-06T02:45:39;100715.47;;;16.70;61.46
80678;BME280;70042;52.494;5.502;2024-01-06T02:48:05;100714.53;;;16.71;61.28
80678;BME280;70042;52.494;5.502;2024-01-06T02:50:30;100714.53;;;16.73;61.93
80678;BME280;70042;52.494;5.502;2024-01-06T02:52:56;100711.03;;;16.71;61.46
80678;BME280;70042;52.494;5.502;2024-01-06T02:55:21;100721.59;;;16.71;62.06
80678;BME280;70042;52.494;5.502;2024-01-06T02:57:46;100731.31;;;16.69;61.92
80678;BME280;70042;52.494;5.502;2024-01-06T03:00:12;100740.09;;;16.69;61.69
80678;BME280;70042;52.494;5.502;2024-01-06T03:02:38;100748.03;;;16.68;61.55
80678;BME280;70042;52.494;5.502;2024-01-06T03:05:07;100750.66;;;16.68;61.71
80678;BME280;70042;52.494;5.502;2024-01-06T03:07:33;100756.88;;;16.67;62.07
80678;BME280;70042;52.494;5.502;2024-01-06T03:09:58;100753.31;;;16.68;61.57
80678;BME280;70042;52.494;5.502;2024-01-06T03:12:23;100759.47;;;16.68;61.56
80678;BME280;70042;52.494;5.502;2024-01-06T03:14:49;100763.88;;;16.68;61.71
80678;BME280;70042;52.494;5.502;2024-01-06T03:17:14;100761.22;;;16.69;61.49
80678;BME280;70042;52.494;5.502;2024-01-06T03:19:40;100765.59;;;16.69;61.52
80678;BME280;70042;52.494;5.502;2024-01-06T03:22:05;100770.88;;;16.69;61.75
80678;BME280;70042;52.494;5.502;2024-01-06T03:24:31;100775.28;;;16.70;61.70
80678;BME280;70042;52.494;5.502;2024-01-06T03:26:56;100774.34;;;16.71;61.58
80678;BME280;70042;52.494;5.502;2024-01-06T03:29:22;100778.78;;;16.70;61.66
80678;BME280;70042;52.494;5.502;2024-01-06T03:31:47;100776.16;;;16.69;61.62
80678;BME280;70042;52.494;5.502;2024-01-06T03:34:13;100784.13;;;16.67;61.58
80678;BME280;70042;52.494;5.502;2024-01-06T03:36:39;100784.97;;;16.68;61.70
80678;BME280;70042;52.494;5.502;2024-01-06T03:39:05;100791.16;;;16.67;61.50
80678;BME280;70042;52.494;5.502;2024-01-06T03:41:31;100792.94;;;16.66;61.80
80678;BME280;70042;52.494;5.502;2024-01-06T03:43:56;100792.06;;;16.66;61.88
80678;BME280;70042;52.494;5.502;2024-01-06T03:46:22;100806.13;;;16.65;61.79
80678;BME280;70042;52.494;5.502;2024-01-06T03:48:48;100816.69;;;16.65;61.79
80678;BME280;70042;52.494;5.502;2024-01-06T03:51:13;100816.69;;;16.65;61.84
80678;BME280;70042;52.494;5.502;2024-01-06T03:53:39;100825.47;;;16.67;61.76
80678;BME280;70042;52.494;5.502;2024-01-06T03:56:06;100823.72;;;16.66;61.82
80678;BME280;70042;52.494;5.502;2024-01-06T03:58:32;100824.59;;;16.66;61.66
80678;BME280;70042;52.494;5.502;2024-01-06T04:00:57;100828.97;;;16.67;61.53
80678;BME280;70042;52.494;5.502;2024-01-06T04:03:22;100829.00;;;16.66;61.78
80678;BME280;70042;52.494;5.502;2024-01-06T04:05:48;100827.25;;;16.65;61.36
80678;BME280;70042;52.494;5.502;2024-01-06T04:08:13;100840.47;;;16.63;61.73
80678;BME280;70042;52.494;5.502;2024-01-06T04:10:39;100834.34;;;16.63;61.67
80678;BME280;70042;52.494;5.502;2024-01-06T04:13:10;100843.13;;;16.62;61.79
80678;BME280;70042;52.494;5.502;2024-01-06T04:15:35;100851.03;;;16.62;61.71
80678;BME280;70042;52.494;5.502;2024-01-06T04:18:02;100848.41;;;16.62;61.51
80678;BME280;70042;52.494;5.502;2024-01-06T04:20:29;100849.28;;;16.62;61.89
80678;BME280;70042;52.494;5.502;2024-01-06T04:22:54;100857.19;;;16.64;61.63
80678;BME280;70042;52.494;5.502;2024-01-06T04:25:20;100854.56;;;16.62;61.77
80678;BME280;70042;52.494;5.502;2024-01-06T04:27:46;100858.94;;;16.63;61.64
80678;BME280;70042;52.494;5.502;2024-01-06T04:30:12;100870.38;;;16.64;61.71
80678;BME280;70042;52.494;5.502;2024-01-06T04:32:38;100864.22;;;16.63;61.70
80678;BME280;70042;52.494;5.502;2024-01-06T04:35:04;100871.25;;;16.63;61.68
80678;BME280;70042;52.494;5.502;2024-01-06T04:37:29;100867.75;;;16.62;61.94
80678;BME280;70042;52.494;5.502;2024-01-06T04:39:55;100869.50;;;16.62;61.61
80678;BME280;70042;52.494;5.502;2024-01-06T04:42:21;100873.06;;;16.61;61.61
80678;BME280;70042;52.494;5.502;2024-01-06T04:44:47;100867.84;;;16.58;61.86
80678;BME280;70042;52.494;5.502;2024-01-06T04:47:13;100878.41;;;16.58;61.79
80678;BME280;70042;52.494;5.502;2024-01-06T04:49:38;100872.28;;;16.56;61.83
80678;BME280;70042;52.494;5.502;2024-01-06T04:52:04;100878.47;;;16.55;61.84
80678;BME280;70042;52.494;5.502;2024-01-06T04:54:29;100880.19;;;16.56;61.77
80678;BME280;70042;52.494;5.502;2024-01-06T04:56:55;100880.19;;;16.56;62.13
80678;BME280;70042;52.494;5.502;2024-01-06T04:59:21;100884.53;;;16.58;61.84
80678;BME280;70042;52.494;5.502;2024-01-06T05:01:46;100894.22;;;16.58;61.51
80678;BME280;70042;52.494;5.502;2024-01-06T05:04:11;100899.50;;;16.58;61.80
80678;BME280;70042;52.494;5.502;2024-01-06T05:06:37;100899.50;;;16.58;61.66
80678;BME280;70042;52.494;5.502;2024-01-06T05:09:02;100908.25;;;16.60;61.92
80678;BME280;70042;52.494;5.502;2024-01-06T05:11:28;100899.50;;;16.58;61.96
80678;BME280;70042;52.494;5.502;2024-01-06T05:13:54;100905.69;;;16.57;61.75
80678;BME280;70042;52.494;5.502;2024-01-06T05:16:19;100921.50;;;16.57;61.67
80678;BME280;70042;52.494;5.502;2024-01-06T05:18:45;100917.13;;;16.56;61.99
80678;BME280;70042;52.494;5.502;2024-01-06T05:21:10;100916.25;;;16.53;61.63
80678;BME280;70042;52.494;5.502;2024-01-06T05:23:36;100923.31;;;16.55;61.78
80678;BME280;70042;52.494;5.502;2024-01-06T05:26:01;100921.53;;;16.53;61.88
80678;BME280;70042;52.494;5.502;2024-01-06T05:28:27;100922.41;;;16.52;61.95
80678;BME280;70042;52.494;5.502;2024-01-06T05:30:52;100914.50;;;16.52;61.47
80678;BME280;70042;52.494;5.502;2024-01-06T05:33:17;100925.94;;;16.55;61.82
80678;BME280;70042;52.494;5.502;2024-01-06T05:35:43;100929.44;;;16.53;61.79
80678;BME280;70042;52.494;5.502;2024-01-06T05:38:08;100932.94;;;16.56;61.56
80678;BME280;70042;52.494;5.502;2024-01-06T05:40:34;100926.78;;;16.55;61.74
80678;BME280;70042;52.494;5.502;2024-01-06T05:42:59;100929.41;;;16.57;61.49
80678;BME280;70042;52.494;5.502;2024-01-06T05:45:25;100931.22;;;16.55;61.58
80678;BME280;70042;52.494;5.502;2024-01-06T05:47:50;100942.63;;;16.55;61.88
80678;BME280;70042;52.494;5.502;2024-01-06T05:50:16;100932.06;;;16.53;61.82
80678;BME280;70042;52.494;5.502;2024-01-06T05:52:42;100948.78;;;16.52;61.48
80678;BME280;70042;52.494;5.502;2024-01-06T05:55:08;100952.31;;;16.53;61.76
80678;BME280;70042;52.494;5.502;2024-01-06T05:57:36;100951.47;;;16.51;62.12
80678;BME280;70042;52.494;5.502;2024-01-06T06:00:02;100965.50;;;16.51;61.49
80678;BME280;70042;52.494;5.502;2024-01-06T06:02:27;100960.22;;;16.51;61.86
80678;BME280;70042;52.494;5.502;2024-01-06T06:04:53;100969.06;;;16.50;61.79
80678;BME280;70042;52.494;5.502;2024-01-06T06:07:18;100976.97;;;16.50;61.75
80678;BME280;70042;52.494;5.502;2024-01-06T06:09:44;100969.00;;;16.52;61.81
80678;BME280;70042;52.494;5.502;2024-01-06T06:12:13;100976.91;;;16.53;61.72
80678;BME280;70042;52.494;5.502;2024-01-06T06:14:38;100982.19;;;16.53;61.73
80678;BME280;70042;52.494;5.502;2024-01-06T06:17:04;100984.84;;;16.52;61.67
80678;BME280;70042;52.494;5.502;2024-01-06T06:19:29;100989.25;;;16.51;61.81
80678;BME280;70042;52.494;5.502;2024-01-06T06:21:55;100998.06;;;16.50;61.75
80678;BME280;70042;52.494;5.502;2024-01-06T06:24:20;101000.72;;;16.50;61.51
80678;BME280;70042;52.494;5.502;2024-01-06T06:26:45;101007.75;;;16.48;61.62
80678;BME280;70042;52.494;5.502;2024-01-06T06:29:11;101017.41;;;16.49;61.66
80678;BME280;70042;52.494;5.502;2024-01-06T06:31:36;101020.09;;;16.48;61.72
80678;BME280;70042;52.494;5.502;2024-01-06T06:34:02;101020.94;;;16.48;61.65
80678;BME280;70042;52.494;5.502;2024-01-06T06:36:27;101028.84;;;16.48;61.90
80678;BME280;70042;52.494;5.502;2024-01-06T06:38:52;101029.78;;;16.47;62.10
80678;BME280;70042;52.494;5.502;2024-01-06T06:41:19;101031.50;;;16.48;61.85
80678;BME280;70042;52.494;5.502;2024-01-06T06:43:45;101035.06;;;16.47;61.72
80678;BME280;70042;52.494;5.502;2024-01-06T06:46:10;101042.03;;;16.48;61.53
80678;BME280;70042;52.494;5.502;2024-01-06T06:48:35;101039.41;;;16.48;61.40
80678;BME280;70042;52.494;5.502;2024-01-06T06:51:01;101042.03;;;16.48;61.66
80678;BME280;70042;52.494;5.502;2024-01-06T06:53:27;101052.59;;;16.48;61.50
80678;BME280;70042;52.494;5.502;2024-01-06T06:55:53;101050.88;;;16.47;61.82
80678;BME280;70042;52.494;5.502;2024-01-06T06:58:18;101059.66;;;16.46;61.75
80678;BME280;70042;52.494;5.502;2024-01-06T07:00:44;101062.31;;;16.46;61.57
80678;BME280;70042;52.494;5.502;2024-01-06T07:03:09;101070.22;;;16.46;61.74
80678;BME280;70042;52.494;5.502;2024-01-06T07:05:34;101066.69;;;16.47;61.76
80678;BME280;70042;52.494;5.502;2024-01-06T07:08:00;101071.97;;;16.47;61.99
80678;BME280;70042;52.494;5.502;2024-01-06T07:10:26;101076.34;;;16.48;61.55
80678;BME280;70042;52.494;5.502;2024-01-06T07:12:51;101083.41;;;16.48;61.58
80678;BME280;70042;52.494;5.502;2024-01-06T07:15:17;101086.00;;;16.49;61.47
80678;BME280;70042;52.494;5.502;2024-01-06T07:17:42;101094.78;;;16.48;61.55
80678;BME280;70042;52.494;5.502;2024-01-06T07:20:08;101090.41;;;16.49;61.48
80678;BME280;70042;52.494;5.502;2024-01-06T07:22:34;101098.31;;;16.49;61.60
80678;BME280;70042;52.494;5.502;2024-01-06T07:25:00;101093.06;;;16.47;61.16
80678;BME280;70042;52.494;5.502;2024-01-06T07:27:26;101099.22;;;16.48;61.67
80678;BME280;70042;52.494;5.502;2024-01-06T07:29:52;101108.91;;;16.47;61.42
80678;BME280;70042;52.494;5.502;2024-01-06T07:32:21;101109.81;;;16.45;61.47
80678;BME280;70042;52.494;5.502;2024-01-06T07:34:46;101106.31;;;16.43;61.70
80678;BME280;70042;52.494;5.502;2024-01-06T07:37:12;101107.19;;;16.43;61.97
80678;BME280;70042;52.494;5.502;2024-01-06T07:39:37;101113.34;;;16.42;61.64
80678;BME280;70042;52.494;5.502;2024-01-06T07:42:03;101121.25;;;16.42;61.86
80678;BME280;70042;52.494;5.502;2024-01-06T07:44:29;101117.75;;;16.43;61.54
80678;BME280;70042;52.494;5.502;2024-01-06T07:46:54;101119.50;;;16.44;61.54
80678;BME280;70042;52.494;5.502;2024-01-06T07:49:19;101126.50;;;16.45;61.84
80678;BME280;70042;52.494;5.502;2024-01-06T07:51:45;101133.56;;;16.45;61.47
80678;BME280;70042;52.494;5.502;2024-01-06T07:54:11;101124.78;;;16.44;61.38
80678;BME280;70042;52.494;5.502;2024-01-06T07:56:37;101142.31;;;16.45;61.25
80678;BME280;70042;52.494;5.502;2024-01-06T07:59:03;101138.84;;;16.43;61.71
80678;BME280;70042;52.494;5.502;2024-01-06T08:01:29;101141.47;;;16.43;61.54
80678;BME280;70042;52.494;5.502;2024-01-06T08:03:54;101148.56;;;16.41;61.32
80678;BME280;70042;52.494;5.502;2024-01-06T08:06:20;101151.19;;;16.41;61.70
80678;BME280;70042;52.494;5.502;2024-01-06T08:08:45;101159.09;;;16.41;61.64
80678;BME280;70042;52.494;5.502;2024-01-06T08:11:11;101161.75;;;16.41;61.51
80678;BME280;70042;52.494;5.502;2024-01-06T08:13:37;101171.41;;;16.41;61.66
80678;BME280;70042;52.494;5.502;2024-01-06T08:16:03;101167.00;;;16.41;61.81
80678;BME280;70042;52.494;5.502;2024-01-06T08:18:28;101177.56;;;16.41;61.68
80678;BME280;70042;52.494;5.502;2024-01-06T08:20:54;101182.84;;;16.41;61.65
80678;BME280;70042;52.494;5.502;2024-01-06T08:23:19;101174.94;;;16.41;61.40
80678;BME280;70042;52.494;5.502;2024-01-06T08:25:46;101189.84;;;16.42;61.58
80678;BME280;70042;52.494;5.502;2024-01-06T08:28:13;101191.63;;;16.42;61.51
80678;BME280;70042;52.494;5.502;2024-01-06T08:30:40;101184.56;;;16.42;61.22
80678;BME280;70042;52.494;5.502;2024-01-06T08:33:06;101184.56;;;16.42;61.46
80678;BME280;70042;52.494;5.502;2024-01-06T08:35:31;101196.91;;;16.42;61.84
80678;BME280;70042;52.494;5.502;2024-01-06T08:37:57;101198.66;;;16.40;61.70
80678;BME280;70042;52.494;5.502;2024-01-06T08:40:22;101213.59;;;16.41;61.56
80678;BME280;70042;52.494;5.502;2024-01-06T08:42:47;101213.59;;;16.39;61.85
80678;BME280;70042;52.494;5.502;2024-01-06T08:45:13;101216.25;;;16.39;61.68
80678;BME280;70042;52.494;5.502;2024-01-06T08:47:38;101218.91;;;16.38;61.77
80678;BME280;70042;52.494;5.502;2024-01-06T08:50:04;101212.78;;;16.37;61.51
80678;BME280;70042;52.494;5.502;2024-01-06T08:52:30;101210.97;;;16.39;61.31
80678;BME280;70042;52.494;5.502;2024-01-06T08:54:55;101218.00;;;16.40;61.72
80678;BME280;70042;52.494;5.502;2024-01-06T08:57:20;101212.72;;;16.40;61.45
80678;BME280;70042;52.494;5.502;2024-01-06T08:59:46;101220.63;;;16.40;61.41
80678;BME280;70042;52.494;5.502;2024-01-06T09:02:11;101219.75;;;16.41;61.59
80678;BME280;70042;52.494;5.502;2024-01-06T09:04:37;101223.28;;;16.40;61.67
80678;BME280;70042;52.494;5.502;2024-01-06T09:07:03;101233.81;;;16.40;61.56
80678;BME280;70042;52.494;5.502;2024-01-06T09:09:29;101236.47;;;16.39;61.66
80678;BME280;70042;52.494;5.502;2024-01-06T09:11:55;101240.91;;;16.38;61.44
80678;BME280;70042;52.494;5.502;2024-01-06T09:14:20;101248.81;;;16.38;61.56
80678;BME280;70042;52.494;5.502;2024-01-06T09:16:46;101249.69;;;16.37;61.38
80678;BME280;70042;52.494;5.502;2024-01-06T09:19:11;101252.34;;;16.36;61.49
80678;BME280;70042;52.494;5.502;2024-01-06T09:21:36;101254.97;;;16.37;61.62
80678;BME280;70042;52.494;5.502;2024-01-06T09:24:02;101254.97;;;16.37;61.44
80678;BME280;70042;52.494;5.502;2024-01-06T09:26:32;101267.25;;;16.38;61.38
80678;BME280;70042;52.494;5.502;2024-01-06T09:28:59;101268.09;;;16.39;61.58
80678;BME280;70042;52.494;5.502;2024-01-06T09:31:25;101269.88;;;16.40;61.81
80678;BME280;70042;52.494;5.502;2024-01-06T09:33:50;101270.75;;;16.40;61.40
80678;BME280;70042;52.494;5.502;2024-01-06T09:36:16;101275.13;;;16.40;61.46
80678;BME280;70042;52.494;5.502;2024-01-06T09:38:41;101279.53;;;16.39;61.64
80678;BME280;70042;52.494;5.502;2024-01-06T09:41:07;101276.91;;;16.39;61.60
80678;BME280;70042;52.494;5.502;2024-01-06T09:43:33;101289.22;;;16.39;61.69
80678;BME280;70042;52.494;5.502;2024-01-06T09:46:06;101296.28;;;16.38;61.48
80678;BME280;70042;52.494;5.502;2024-01-06T09:48:40;101294.53;;;16.37;61.50
80678;BME280;70042;52.494;5.502;2024-01-06T09:51:06;101297.16;;;16.37;61.20
80678;BME280;70042;52.494;5.502;2024-01-06T09:53:36;101299.78;;;16.37;61.42
80678;BME280;70042;52.494;5.502;2024-01-06T09:56:04;101306.81;;;16.38;61.56
80678;BME280;70042;52.494;5.502;2024-01-06T09:58:30;101315.59;;;16.39;61.73
80678;BME280;70042;52.494;5.502;2024-01-06T10:01:00;101314.69;;;16.41;61.46
80678;BME280;70042;52.494;5.502;2024-01-06T10:03:25;101312.06;;;16.41;61.51
80678;BME280;70042;52.494;5.502;2024-01-06T10:05:52;101321.72;;;16.39;61.26
80678;BME280;70042;52.494;5.502;2024-01-06T10:08:18;101321.72;;;16.39;61.16
80678;BME280;70042;52.494;5.502;2024-01-06T10:10:44;101326.13;;;16.39;61.42
80678;BME280;70042;52.494;5.502;2024-01-06T10:13:10;101327.91;;;16.38;61.60
80678;BME280;70042;52.494;5.502;2024-01-06T10:15:36;101331.44;;;16.37;61.30
80678;BME280;70042;52.494;5.502;2024-01-06T10:18:01;101332.31;;;16.36;61.46
80678;BME280;70042;52.494;5.502;2024-01-06T10:20:28;101336.72;;;16.37;61.31
80678;BME280;70042;52.494;5.502;2024-01-06T10:22:54;101333.22;;;16.35;61.60
80678;BME280;70042;52.494;5.502;2024-01-06T10:25:23;101335.00;;;16.35;61.38
80678;BME280;70042;52.494;5.502;2024-01-06T10:27:48;101337.59;;;16.36;61.55
80678;BME280;70042;52.494;5.502;2024-01-06T10:30:14;101340.22;;;16.36;61.41
80678;BME280;70042;52.494;5.502;2024-01-06T10:32:43;101349.03;;;16.37;61.56
80678;BME280;70042;52.494;5.502;2024-01-06T10:35:09;101342.84;;;16.39;61.53
80678;BME280;70042;52.494;5.502;2024-01-06T10:37:35;101343.75;;;16.38;61.63
80678;BME280;70042;52.494;5.502;2024-01-06T10:40:12;101347.25;;;16.37;61.46
80678;BME280;70042;52.494;5.502;2024-01-06T10:42:39;101357.78;;;16.39;61.19
80678;BME280;70042;52.494;5.502;2024-01-06T10:45:13;101359.56;;;16.38;61.11
80678;BME280;70042;52.494;5.502;2024-01-06T10:47:41;101353.41;;;16.38;61.53
80678;BME280;70042;52.494;5.502;2024-01-06T10:50:07;101355.16;;;16.37;61.02
80678;BME280;70042;52.494;5.502;2024-01-06T10:52:37;101360.44;;;16.36;61.66
80678;BME280;70042;52.494;5.502;2024-01-06T10:55:04;101355.22;;;16.34;61.34
80678;BME280;70042;52.494;5.502;2024-01-06T10:57:30;101360.47;;;16.34;61.29
80678;BME280;70042;52.494;5.502;2024-01-06T10:59:59;101363.13;;;16.34;61.44
80678;BME280;70042;52.494;5.502;2024-01-06T11:02:26;101371.03;;;16.34;61.85
80678;BME280;70042;52.494;5.502;2024-01-06T11:04:52;101365.75;;;16.34;61.19
80678;BME280;70042;52.494;5.502;2024-01-06T11:07:20;101370.16;;;16.35;61.49
80678;BME280;70042;52.494;5.502;2024-01-06T11:10:06;101377.16;;;16.36;61.17
80678;BME280;70042;52.494;5.502;2024-01-06T11:12:34;101372.78;;;16.35;61.31
80678;BME280;70042;52.494;5.502;2024-01-06T11:15:00;101371.88;;;16.36;61.13
80678;BME280;70042;52.494;5.502;2024-01-06T11:17:51;101381.53;;;16.37;61.47
80678;BME280;70042;52.494;5.502;2024-01-06T11:20:22;101378.06;;;16.35;61.20
80678;BME280;70042;52.494;5.502;2024-01-06T11:22:48;101375.44;;;16.34;61.32
80678;BME280;70042;52.494;5.502;2024-01-06T11:25:14;101378.94;;;16.33;61.33
80678;BME280;70042;52.494;5.502;2024-01-06T11:27:42;101375.47;;;16.31;61.39
80678;BME280;70042;52.494;5.502;2024-01-06T11:30:08;101383.38;;;16.31;61.61
80678;BME280;70042;52.494;5.502;2024-01-06T11:32:44;101380.78;;;16.29;61.30
80678;BME280;70042;52.494;5.502;2024-01-06T11:35:16;101383.38;;;16.31;61.28
80678;BME280;70042;52.494;5.502;2024-01-06T11:45:25;101392.13;;;16.34;61.07
80678;BME280;70042;52.494;5.502;2024-01-06T11:47:54;101395.59;;;16.36;61.26
80678;BME280;70042;52.494;5.502;2024-01-06T11:50:21;101387.72;;;16.35;61.32
80678;BME280;70042;52.494;5.502;2024-01-06T11:52:46;101397.41;;;16.33;61.26
80678;BME280;70042;52.494;5.502;2024-01-06T11:55:12;101393.03;;;16.32;61.43
80678;BME280;70042;52.494;5.502;2024-01-06T11:57:38;101399.19;;;16.32;61.25
80678;BME280;70042;52.494;5.502;2024-01-06T12:00:04;101388.66;;;16.32;61.53
80678;BME280;70042;52.494;5.502;2024-01-06T12:02:30;101399.19;;;16.31;61.32
80678;BME280;70042;52.494;5.502;2024-01-06T12:04:55;101400.94;;;16.30;61.24
80678;BME280;70042;52.494;5.502;2024-01-06T12:07:21;101395.69;;;16.30;61.45
80678;BME280;70042;52.494;5.502;2024-01-06T12:09:51;101393.94;;;16.29;61.61
80678;BME280;70042;52.494;5.502;2024-01-06T12:12:17;101391.31;;;16.28;61.40
80678;BME280;70042;52.494;5.502;2024-01-06T12:14:43;101389.56;;;16.28;61.42
80678;BME280;70042;52.494;5.502;2024-01-06T12:17:11;101386.00;;;16.31;61.26
80678;BME280;70042;52.494;5.502;2024-01-06T12:19:39;101392.16;;;16.31;61.44
80678;BME280;70042;52.494;5.502;2024-01-06T12:22:05;101392.16;;;16.31;61.36
80678;BME280;70042;52.494;5.502;2024-01-06T12:24:30;101397.44;;;16.31;61.28
80678;BME280;70042;52.494;5.502;2024-01-06T12:26:56;101391.31;;;16.29;61.44
80678;BME280;70042;52.494;5.502;2024-01-06T12:29:23;101407.13;;;16.28;61.27
80678;BME280;70042;52.494;5.502;2024-01-06T12:31:51;101406.25;;;16.27;61.44
80678;BME280;70042;52.494;5.502;2024-01-06T12:34:16;101396.59;;;16.26;61.22
80678;BME280;70042;52.494;5.502;2024-01-06T12:36:42;101401.88;;;16.26;61.13
80678;BME280;70042;52.494;5.502;2024-01-06T12:39:12;101405.38;;;16.27;61.12
80678;BME280;70042;52.494;5.502;2024-01-06T12:41:41;101403.63;;;16.29;61.63
80678;BME280;70042;52.494;5.502;2024-01-06T12:44:07;101412.41;;;16.29;61.11
80678;BME280;70042;52.494;5.502;2024-01-06T12:46:33;101404.50;;;16.29;61.21
80678;BME280;70042;52.494;5.502;2024-01-06T12:48:58;101409.78;;;16.29;61.31
80678;BME280;70042;52.494;5.502;2024-01-06T12:51:24;101410.63;;;16.30;61.01